Aktualne dane pomiarowe

Uwaga, wersja testowa! Automatyczne pobieranie danych za pomocą narzędzi lub skryptów to umożliwiających jest zabronione.

Dane meteo z obszaru Polski uzyskane na podstawie depesz SYNOP pobieranych co godzinę z NWS. Najedź myszką na symbol przedstawiony w tabeli, aby uzyskać informacje co do jego znaczenia. Prosimy pamiętać, że to testowa wersja strony, która jeszcze nie jest ukończona. Stworzono również jest krótki FAQ dotyczący korzystania z tej podstrony Anomalie temperatury w chwili obecnej odniesione są do okresu referencyjnego 1951-2016. Okres ten będzie później zmieniony na 1981-2010. Kliknij ikonę aby pobrać plik CSV. Kliknij ikonę aby wygenerować mapę synoptyczną dla danego terminu.

Wybierz Datę:    

        

Zakopane (12625)

Dane terminowe dla wybranej stacji. Kliknij datę, aby otrzymać dane z tego terminu dla wszystkich stacji.

TemperaturaZachmurzenieWiatrCiśnienieOpadyPogoda
 Data t td wb tx tn tg rh  Nt Nl Cl Cm Ch ws wd g1 g2 wx mslp ppp ch 24h 12h t ww ww w1 w2  
2019-08-08 23:00:00 12.3 10.7 11.2--- 9025.0wx-wx2wx--2- 918.9 0.7---------
2019-08-08 22:00:00 13.0 11.1 11.7--- 8825.0wx-wx1wx--1- 918.8 0.8---------
2019-08-08 21:00:00 13.8 11.8 12.4--- 8820.0wxwxwxwx1wx--1- 918.3 0.8---------
2019-08-08 20:00:00 15.0 12.5 13.3--- 8520.0wxwxwxwx1wx---- 918.2 0.8---------
2019-08-08 19:00:00 15.7 13.2 14.0--- 8520.0wxwxwxwxwx1wx--1- 918.0 0.7---------
2019-08-08 18:00:00 17.7 13.2 14.7 21.7 15.6- 7525.0wxwxwxwx1wx--1- 917.5 0.3- 0.012------
2019-08-08 17:00:00 19.5 12.0 14.8--- 6240.0wxwxwxwx1wx--1- 917.4 0.3---------
2019-08-08 16:00:00 20.0 12.0 15.0--- 6035.0wxwxwxwx1wx---- 917.3 0.1---------
2019-08-08 15:00:00 20.9 12.1 15.4--- 5740.0wxwxwxwx3wx---- 917.2 -0.1---------
2019-08-08 14:00:00 21.2 10.4 14.8--- 5035.0wxwxwxwx3wx--3- 917.1 0.0---------
2019-08-08 13:00:00 21.4 12.0 15.6--- 5540.0wxwxwxwx2wx--2- 917.2 0.1---------
2019-08-08 12:00:00 20.0 11.5 14.8--- 5830.0wxwxwxwx2wx--2- 917.3 0.7- 0.06------
2019-08-08 11:00:00 18.9 13.1 15.1--- 6945.0wxwxwxwx2wx--2- 917.1 0.6---------
2019-08-08 10:00:00 19.2 12.9 15.2--- 6745.0wxwxwxwx2wx--2- 917.1 1.1---------
2019-08-08 09:00:00 18.6 11.7 14.3--- 6435.0wxwxwx2wx--2- 916.6 1.2---------
2019-08-08 08:00:00 17.7 13.6 15.0--- 7735.0wxwxwx2wx--2- 916.5 2.0---------
2019-08-08 07:00:00 16.2 13.9 14.6--- 8640.0wxwxwx2wx--2- 916.0 2.4---------
2019-08-08 06:00:00 15.7 13.9 14.4 19.9 14.8 14 8940.0wxwxwx2wx--2- 915.4 2.0 9.5 9.012wx-w1w2- 8.0
2019-08-08 05:00:00 15.7 13.9 14.4--- 8940.0wxwxwx2wx---- 914.5 1.4---------
2019-08-08 04:00:00 15.1 13.8 14.2--- 9250.0wxwxwxwx1wx---- 913.6 0.3---------
2019-08-08 03:00:00 15.2 14.1 14.4--- 9350.0wxwxwx1wx--1- 913.4 1.8---wx-w1w2--
2019-08-08 02:00:00 14.9 14.1 14.3--- 9550.0wxwxwxwx1wx--1- 913.1 0.6---wx---
2019-08-08 01:00:00 14.9 13.8 14.1--- 935.0wxwxwx1wx--1- 913.3 0.7---wx-w1w2--
2019-08-08 00:00:00 15.1 14.0 14.3--- 937.0wxwxwxwx1wx--1- 911.6 -1.1- 4.06wx-w1--
2019-08-07 23:00:00 17.1 13.8 14.9--- 8125.0wxwxwx1wx--1- 912.5 -0.5---wx---
2019-08-07 22:00:00 16.5 14.1 14.8--- 8620.0wx-wx1wx--1- 912.6 -0.6---------
2019-08-07 21:00:00 16.9 14.4 15.2--- 8520.0wx-wxwx1wx---- 912.7 -0.5---------
2019-08-07 20:00:00 17.1 14.2 15.1--- 8320.0wx-wx1wx---- 913.0 -0.4---------
2019-08-07 19:00:00 18.7 14.8 16.1--- 7825.0wx-wx1wx---- 913.2 -0.1---------
2019-08-07 18:00:00 19.8 14.4 16.2 25.7 18.2- 7140.0wxwxwxwx1wx--1- 913.2 -0.4- 0.112wx-w1w2--
2019-08-07 17:00:00 22.5 14.1 17.1--- 5950.0wxwxwxwxwx1wx--1- 913.4 -1.0---------
2019-08-07 16:00:00 23.5 13.4 17.2--- 5350.0wxwxwxwxwx2wx--2- 913.3 -0.7---------
2019-08-07 15:00:00 22.4 15.0 17.6--- 6345.0wxwxwxwxwx2wx--2- 913.6 -1.2---wx-w1--
2019-08-07 14:00:00 22.4 16.2 18.3--- 6835.0wxwxwx1wx---- 914.4 0.1---wx---
2019-08-07 13:00:00 22.7 16.5 18.5--- 6830.0wxwxwx1wx--1- 914.0 -0.9---wx---
2019-08-07 12:00:00 22.8 13.6 17.0--- 5635.0wxwxwx2wx-72- 914.8 -0.3--6wx---
2019-08-07 11:00:00 25.7 13.5 18.1--- 4725.0wxwxwxwx2wx-72- 914.3 -0.7---------
2019-08-07 10:00:00 25.3 13.8 18.1--- 4930.0wxwxwxwx1wx--1- 914.9 -0.1---------
2019-08-07 09:00:00 24.9 14.4 18.2--- 5235.0wxwxwxwxwx2wx---- 915.1 -0.3---------
2019-08-07 08:00:00 23.7 13.6 17.4--- 5335.0wxwxwxwxwx2wx--2- 915.0 -0.7---------
2019-08-07 07:00:00 21.4 13.3 16.3--- 6030.0wxwxwxwxwx1wx--1- 915.0 -0.7----22----
2019-08-07 06:00:00 18.3 14.2 15.5 20.7 13.2 12 7720.0wxwxwxwxwx0---0- 915.4 -0.5- 0.012-22--- 12.4
2019-08-07 05:00:00 14.4 13.1 13.5--- 9230.0wxwxwxwxwx1wx--1- 915.7 -0.2----22----
2019-08-07 04:00:00 13.3 12.2 12.5--- 9320.0wxwxwxwxwx1wx---- 915.7 -0.3---------
2019-08-07 03:00:00 13.5 12.2 12.6--- 9235.0wxwxwxwxwx1wx--1- 915.9 -0.2----22----
2019-08-07 02:00:00 13.9 12.3 12.8--- 9040.0wx-wxwx1wx--1- 915.9 -0.4----22----
2019-08-07 01:00:00 14.2 12.6 13.1--- 9035.0wx-wx1wx--1- 916.0 -0.2----22----
2019-08-07 00:00:00 15.4 13.2 13.9--- 8735.0wxwxwxwx1wx--1- 916.1 -0.5- 0.06-22----
1.9 ms

 

Print Friendly, PDF & Email